createdAt,value
2023-02-19T00:01:47.540Z,64.67
2023-02-19T00:04:20.644Z,64.62
2023-02-19T00:06:50.027Z,65.32
2023-02-19T00:09:20.695Z,65.42
2023-02-19T00:11:48.663Z,64.90
2023-02-19T00:14:19.159Z,65.53
2023-02-19T00:16:46.332Z,65.30
2023-02-19T00:19:18.637Z,65.89
2023-02-19T00:21:46.043Z,65.78
2023-02-19T00:24:14.616Z,66.20
2023-02-19T00:26:42.461Z,66.02
2023-02-19T00:29:13.704Z,66.65
2023-02-19T00:31:40.698Z,66.53
2023-02-19T00:34:09.931Z,66.38
2023-02-19T00:36:38.713Z,66.53
2023-02-19T00:39:06.940Z,66.96
2023-02-19T00:41:34.112Z,66.91
2023-02-19T00:44:03.908Z,66.70
2023-02-19T00:46:34.067Z,67.17
2023-02-19T00:49:01.904Z,67.28
2023-02-19T00:51:31.502Z,66.86
2023-02-19T00:53:58.671Z,67.17
2023-02-19T00:56:25.640Z,67.81
2023-02-19T00:58:52.676Z,67.29
2023-02-19T01:01:20.904Z,66.95
2023-02-19T01:03:48.201Z,67.66
2023-02-19T01:06:17.474Z,68.16
2023-02-19T01:08:44.950Z,67.64
2023-02-19T01:11:12.914Z,67.85
2023-02-19T01:13:40.873Z,67.82
2023-02-19T01:16:28.231Z,67.53
2023-02-19T01:18:56.577Z,67.52
2023-02-19T01:21:28.269Z,67.60
2023-02-19T01:23:56.885Z,67.74
2023-02-19T01:26:28.421Z,68.40
2023-02-19T01:29:00.677Z,68.00
2023-02-19T01:31:32.364Z,68.85
2023-02-19T01:34:03.686Z,68.26
2023-02-19T01:36:36.315Z,67.96
2023-02-19T01:39:06.663Z,68.27
2023-02-19T01:41:37.130Z,68.24
2023-02-19T01:44:04.032Z,68.37
2023-02-19T01:46:41.943Z,67.86
2023-02-19T01:49:31.890Z,67.63
2023-02-19T01:52:04.685Z,67.89
2023-02-19T01:54:35.352Z,68.06
2023-02-19T01:57:09.715Z,67.86
2023-02-19T01:59:40.886Z,67.55
2023-02-19T02:02:11.597Z,67.57
2023-02-19T02:04:40.133Z,68.11
2023-02-19T02:07:08.434Z,68.19
2023-02-19T02:09:38.563Z,68.37
2023-02-19T02:12:11.083Z,68.74
2023-02-19T02:14:41.416Z,68.82
2023-02-19T02:17:17.397Z,68.44
2023-02-19T02:20:13.822Z,68.50
2023-02-19T02:23:18.139Z,68.84
2023-02-19T02:26:09.457Z,68.32
2023-02-19T02:29:20.648Z,67.96
2023-02-19T02:31:57.250Z,67.71
2023-02-19T02:34:31.894Z,68.18
2023-02-19T02:37:00.729Z,68.32
2023-02-19T02:39:31.640Z,69.06
2023-02-19T02:42:11.848Z,68.81
2023-02-19T02:44:42.708Z,69.48
2023-02-19T02:47:13.816Z,68.84
2023-02-19T02:49:41.258Z,68.90
2023-02-19T02:52:08.385Z,68.76
2023-02-19T02:54:36.384Z,68.32
2023-02-19T02:57:04.013Z,68.57
2023-02-19T02:59:36.931Z,69.00
2023-02-19T03:02:05.920Z,68.75
2023-02-19T03:04:41.147Z,69.28
2023-02-19T03:07:09.623Z,68.58
2023-02-19T03:09:44.821Z,68.79
2023-02-19T03:12:21.731Z,69.44
2023-02-19T03:14:57.326Z,69.10
2023-02-19T03:17:52.131Z,69.62
2023-02-19T03:20:23.406Z,69.57
2023-02-19T03:22:53.015Z,70.25
2023-02-19T03:25:24.170Z,70.02
2023-02-19T03:27:52.430Z,69.86
2023-02-19T03:30:24.533Z,70.43
2023-02-19T03:33:03.025Z,70.01
2023-02-19T03:35:40.551Z,70.40
2023-02-19T03:38:13.491Z,70.51
2023-02-19T03:40:51.663Z,70.33
2023-02-19T03:43:34.895Z,69.58
2023-02-19T03:46:15.852Z,69.72
2023-02-19T03:49:01.353Z,69.81
2023-02-19T03:51:33.754Z,70.44
2023-02-19T03:54:09.686Z,70.47
2023-02-19T03:57:04.000Z,70.17
2023-02-19T03:59:40.804Z,70.45
2023-02-19T04:02:16.244Z,70.07
2023-02-19T04:04:53.284Z,70.07
2023-02-19T04:07:22.302Z,70.18
2023-02-19T04:09:51.947Z,70.61
2023-02-19T04:12:20.446Z,70.45
2023-02-19T04:14:59.521Z,70.26
2023-02-19T04:17:45.660Z,70.38
2023-02-19T04:20:15.488Z,70.45
2023-02-19T04:22:43.315Z,71.08
2023-02-19T04:25:10.228Z,70.39
2023-02-19T04:27:40.978Z,70.69
2023-02-19T04:30:09.429Z,70.62
2023-02-19T04:32:36.275Z,70.73
2023-02-19T04:35:03.381Z,70.61
2023-02-19T04:37:30.244Z,71.00
2023-02-19T04:39:57.286Z,71.12
2023-02-19T04:42:24.247Z,71.55
2023-02-19T04:44:51.042Z,71.50
2023-02-19T04:47:17.817Z,71.05
2023-02-19T04:49:45.767Z,71.71
2023-02-19T04:52:12.760Z,71.31
2023-02-19T04:54:39.521Z,71.41
2023-02-19T04:57:06.374Z,70.96
2023-02-19T04:59:33.497Z,70.88
2023-02-19T05:02:00.454Z,70.75
2023-02-19T05:04:27.443Z,70.53
2023-02-19T05:06:54.212Z,70.77
2023-02-19T05:09:21.115Z,70.86
2023-02-19T05:11:48.034Z,71.03
2023-02-19T05:14:14.931Z,71.20
2023-02-19T05:16:41.754Z,71.08
2023-02-19T05:19:11.591Z,71.46
2023-02-19T05:21:38.713Z,71.29
2023-02-19T05:24:05.781Z,70.79
2023-02-19T05:26:32.707Z,71.27
2023-02-19T05:29:00.170Z,70.95
2023-02-19T05:31:27.113Z,71.11
2023-02-19T05:33:56.561Z,71.16
2023-02-19T05:36:24.143Z,70.73
2023-02-19T05:38:56.036Z,71.21
2023-02-19T05:41:27.772Z,70.60
2023-02-19T05:43:56.000Z,71.07
2023-02-19T05:46:25.419Z,70.32
2023-02-19T05:48:53.254Z,69.97
2023-02-19T05:51:23.140Z,68.44
2023-02-19T05:53:50.845Z,68.33
2023-02-19T05:56:34.701Z,67.47
2023-02-19T05:59:07.350Z,67.31
2023-02-19T06:01:35.598Z,66.02
2023-02-19T06:04:03.003Z,66.79
2023-02-19T06:06:29.899Z,65.51
2023-02-19T06:08:57.666Z,65.86
2023-02-19T06:11:25.242Z,65.72
2023-02-19T06:13:52.046Z,64.98
2023-02-19T06:16:19.197Z,64.55
2023-02-19T06:18:46.537Z,65.64
2023-02-19T06:21:15.287Z,65.47
2023-02-19T06:23:42.602Z,65.66
2023-02-19T06:26:12.340Z,65.78
2023-02-19T06:28:40.560Z,64.40
2023-02-19T06:31:09.346Z,65.13
2023-02-19T06:33:37.595Z,63.72
2023-02-19T06:36:05.098Z,62.68
2023-02-19T06:38:32.097Z,61.82
2023-02-19T06:41:03.620Z,60.82
2023-02-19T06:43:32.239Z,61.11
2023-02-19T06:46:00.494Z,61.18
2023-02-19T06:48:30.564Z,60.18
2023-02-19T06:50:57.944Z,60.41
2023-02-19T06:53:24.886Z,60.86
2023-02-19T06:56:02.402Z,61.04
2023-02-19T06:58:29.801Z,60.89
2023-02-19T07:00:56.703Z,61.15
2023-02-19T07:03:23.948Z,60.09
2023-02-19T07:05:50.865Z,59.90
2023-02-19T07:08:17.915Z,60.30
2023-02-19T07:10:45.501Z,59.74
2023-02-19T07:13:12.677Z,59.52
2023-02-19T07:15:39.516Z,59.26
2023-02-19T07:18:06.415Z,59.24
2023-02-19T07:20:33.230Z,58.85
2023-02-19T07:23:00.208Z,58.62
2023-02-19T07:25:27.098Z,58.74
2023-02-19T07:27:56.868Z,58.18
2023-02-19T07:30:23.730Z,58.29
2023-02-19T07:32:50.768Z,58.72
2023-02-19T07:35:17.642Z,59.45
2023-02-19T07:37:44.438Z,59.72
2023-02-19T07:40:11.441Z,59.86
2023-02-19T07:42:38.850Z,60.27
2023-02-19T07:45:06.051Z,61.38
2023-02-19T07:47:33.011Z,60.44
2023-02-19T07:49:59.958Z,61.29
2023-02-19T07:52:27.032Z,60.39
2023-02-19T07:54:54.201Z,59.78
2023-02-19T07:57:21.097Z,59.83
2023-02-19T07:59:48.091Z,60.31
2023-02-19T08:02:20.294Z,59.84
2023-02-19T08:04:49.975Z,59.44
2023-02-19T08:07:16.920Z,59.01
2023-02-19T08:09:43.793Z,59.38
2023-02-19T08:12:12.003Z,58.82
2023-02-19T08:14:38.911Z,58.20
2023-02-19T08:17:05.918Z,57.48
2023-02-19T08:19:32.720Z,57.51
2023-02-19T08:21:59.489Z,58.07
2023-02-19T08:24:26.388Z,58.33
2023-02-19T08:26:53.599Z,57.40
2023-02-19T08:29:20.457Z,57.07
2023-02-19T08:31:47.934Z,56.67
2023-02-19T08:34:14.809Z,56.94
2023-02-19T08:36:41.692Z,56.25
2023-02-19T08:39:08.581Z,55.67
2023-02-19T08:41:35.465Z,55.26
2023-02-19T08:44:02.284Z,54.85
2023-02-19T08:46:34.328Z,54.28
2023-02-19T08:49:01.297Z,53.50
2023-02-19T08:51:28.104Z,53.13
2023-02-19T08:53:54.954Z,53.57
2023-02-19T08:56:21.763Z,52.74
2023-02-19T08:58:48.547Z,53.06
2023-02-19T09:01:18.463Z,52.77
2023-02-19T09:03:45.855Z,52.94
2023-02-19T09:06:21.009Z,52.36
2023-02-19T09:08:48.118Z,51.85
2023-02-19T09:11:15.855Z,52.37
2023-02-19T09:13:44.010Z,52.09
2023-02-19T09:16:11.889Z,52.45
2023-02-19T09:18:38.898Z,53.06
2023-02-19T09:21:06.684Z,53.87
2023-02-19T09:23:35.767Z,51.58
2023-02-19T09:26:05.029Z,51.26
2023-02-19T09:28:31.938Z,51.19
2023-02-19T09:31:05.186Z,51.19
2023-02-19T09:33:32.351Z,50.58
2023-02-19T09:36:02.331Z,50.94
2023-02-19T09:38:29.765Z,50.08
2023-02-19T09:41:06.289Z,49.21
2023-02-19T09:43:33.848Z,48.75
2023-02-19T09:46:04.758Z,48.86
2023-02-19T09:48:33.029Z,49.45
2023-02-19T09:51:00.636Z,49.92
2023-02-19T09:53:33.793Z,49.07
2023-02-19T09:56:01.620Z,48.82
2023-02-19T09:58:36.132Z,47.34
2023-02-19T10:01:05.233Z,48.34
2023-02-19T10:03:37.348Z,47.31
2023-02-19T10:06:09.436Z,47.13
2023-02-19T10:08:39.963Z,47.36
2023-02-19T10:11:06.798Z,47.58
2023-02-19T10:13:38.017Z,46.79
2023-02-19T10:16:10.285Z,47.00
2023-02-19T10:18:42.883Z,46.10
2023-02-19T10:21:15.896Z,46.41
2023-02-19T10:23:44.087Z,46.41
2023-02-19T10:26:11.073Z,45.90
2023-02-19T10:28:38.526Z,45.27
2023-02-19T10:31:20.962Z,45.42
2023-02-19T10:33:59.483Z,42.68
2023-02-19T10:36:32.762Z,42.69
2023-02-19T10:39:01.650Z,42.70
2023-02-19T10:41:29.979Z,42.97
2023-02-19T10:44:11.824Z,44.00
2023-02-19T10:46:45.976Z,44.44
2023-02-19T10:49:29.670Z,43.27
2023-02-19T10:52:00.217Z,42.16
2023-02-19T10:54:31.920Z,42.49
2023-02-19T10:57:26.588Z,42.49
2023-02-19T10:59:56.593Z,41.47
2023-02-19T11:02:23.894Z,41.32
2023-02-19T11:05:04.536Z,41.70
2023-02-19T11:07:32.130Z,42.28
2023-02-19T11:10:00.342Z,42.21
2023-02-19T11:12:33.049Z,41.61
2023-02-19T11:15:23.982Z,40.40
2023-02-19T11:18:12.646Z,40.54
2023-02-19T11:20:48.897Z,41.42
2023-02-19T11:23:29.670Z,41.39
2023-02-19T11:26:00.130Z,41.93
2023-02-19T11:28:37.455Z,40.36
2023-02-19T11:31:19.784Z,40.74
2023-02-19T11:33:56.248Z,39.71
2023-02-19T11:36:30.133Z,39.98
2023-02-19T11:38:59.329Z,39.40
2023-02-19T11:42:06.028Z,39.39
2023-02-19T11:45:18.057Z,39.88
2023-02-19T11:48:06.860Z,39.37
2023-02-19T11:50:45.976Z,39.34
2023-02-19T11:53:21.803Z,39.69
2023-02-19T11:56:06.865Z,40.15
2023-02-19T11:59:01.917Z,41.25
2023-02-19T12:01:52.493Z,41.96
2023-02-19T12:04:41.797Z,42.46
2023-02-19T12:07:17.354Z,41.33
2023-02-19T12:10:11.952Z,41.95
2023-02-19T12:13:12.795Z,40.82
2023-02-19T12:15:47.247Z,41.38
2023-02-19T12:18:48.356Z,39.65
2023-02-19T12:21:24.087Z,39.57
2023-02-19T12:24:06.089Z,40.04
2023-02-19T12:27:00.711Z,40.66
2023-02-19T12:29:45.889Z,40.78
2023-02-19T12:32:12.669Z,40.51
2023-02-19T12:35:10.063Z,40.69
2023-02-19T12:37:58.710Z,40.44
2023-02-19T12:40:35.435Z,40.82
2023-02-19T12:43:17.520Z,39.92
2023-02-19T12:45:50.417Z,40.92
2023-02-19T12:48:26.093Z,40.45
2023-02-19T12:51:05.961Z,40.30
2023-02-19T12:53:38.786Z,40.02
2023-02-19T12:56:13.155Z,41.08
2023-02-19T12:58:45.469Z,41.10
2023-02-19T13:01:20.029Z,39.97
2023-02-19T13:03:58.942Z,40.14
2023-02-19T13:06:54.274Z,40.93
2023-02-19T13:09:36.495Z,41.14
2023-02-19T13:12:08.760Z,40.83
2023-02-19T13:15:04.135Z,40.89
2023-02-19T13:17:43.268Z,41.26
2023-02-19T13:20:36.946Z,41.15
2023-02-19T13:23:19.240Z,41.58
2023-02-19T13:26:09.150Z,41.61
2023-02-19T13:28:51.115Z,41.53
2023-02-19T13:31:45.231Z,41.46
2023-02-19T13:34:29.299Z,41.44
2023-02-19T13:36:56.676Z,41.80
2023-02-19T13:39:23.873Z,42.24
2023-02-19T13:41:56.822Z,42.14
2023-02-19T13:44:29.957Z,42.12
2023-02-19T13:46:57.313Z,42.10
2023-02-19T13:49:30.072Z,41.88
2023-02-19T13:52:29.402Z,42.09
2023-02-19T13:55:33.665Z,42.13
2023-02-19T13:58:39.369Z,42.11
2023-02-19T14:01:11.950Z,42.46
2023-02-19T14:03:54.726Z,42.99
2023-02-19T14:06:21.996Z,42.77
2023-02-19T14:08:55.277Z,42.17
2023-02-19T14:11:43.766Z,42.63
2023-02-19T14:14:34.939Z,42.57
2023-02-19T14:17:39.892Z,43.10
2023-02-19T14:20:09.632Z,43.01
2023-02-19T14:23:01.380Z,44.03
2023-02-19T14:25:28.295Z,44.08
2023-02-19T14:28:05.991Z,43.06
2023-02-19T14:30:35.002Z,42.34
2023-02-19T14:33:10.575Z,43.36
2023-02-19T14:35:47.289Z,43.85
2023-02-19T14:38:22.794Z,43.11
2023-02-19T14:40:50.907Z,43.44
2023-02-19T14:43:20.331Z,43.46
2023-02-19T14:46:04.751Z,43.50
2023-02-19T14:48:39.908Z,43.53
2023-02-19T14:51:24.357Z,43.46
2023-02-19T14:53:53.318Z,44.08
2023-02-19T14:56:25.096Z,44.49
2023-02-19T14:59:15.200Z,44.58
2023-02-19T15:01:42.282Z,44.95
2023-02-19T15:04:25.374Z,45.15
2023-02-19T15:06:54.052Z,45.10
2023-02-19T15:09:21.394Z,45.14
2023-02-19T15:11:49.208Z,45.96
2023-02-19T15:14:23.543Z,45.78
2023-02-19T15:16:57.750Z,46.63
2023-02-19T15:19:24.869Z,47.08
2023-02-19T15:21:52.140Z,46.61
2023-02-19T15:24:19.573Z,47.12
2023-02-19T15:26:54.955Z,46.91
2023-02-19T15:29:25.008Z,46.83
2023-02-19T15:31:54.610Z,46.92
2023-02-19T15:34:25.143Z,47.15
2023-02-19T15:36:58.779Z,46.54
2023-02-19T15:39:40.534Z,47.26
2023-02-19T15:42:15.637Z,47.09
2023-02-19T15:45:00.887Z,48.04
2023-02-19T15:48:03.907Z,48.02
2023-02-19T15:50:33.842Z,47.88
2023-02-19T15:53:08.613Z,48.59
2023-02-19T15:55:49.475Z,48.85
2023-02-19T15:58:53.575Z,49.31
2023-02-19T16:01:33.003Z,49.81
2023-02-19T16:04:00.515Z,49.05
2023-02-19T16:06:28.591Z,50.44
2023-02-19T16:08:55.512Z,50.37
2023-02-19T16:11:22.377Z,50.75
2023-02-19T16:13:53.548Z,50.42
2023-02-19T16:16:38.711Z,49.73
2023-02-19T16:19:05.800Z,50.00
2023-02-19T16:21:32.922Z,51.07
2023-02-19T16:24:07.342Z,50.45
2023-02-19T16:26:41.867Z,50.79
2023-02-19T16:29:30.605Z,51.22
2023-02-19T16:32:03.608Z,51.44
2023-02-19T16:34:33.243Z,51.12
2023-02-19T16:37:03.606Z,51.02
2023-02-19T16:39:30.954Z,51.45
2023-02-19T16:42:01.157Z,51.12
2023-02-19T16:44:28.593Z,50.98
2023-02-19T16:47:00.623Z,52.02
2023-02-19T16:49:27.920Z,51.71
2023-02-19T16:51:54.849Z,51.91
2023-02-19T16:54:21.862Z,52.51
2023-02-19T16:56:48.786Z,52.73
2023-02-19T16:59:15.540Z,52.94
2023-02-19T17:01:42.774Z,52.02
2023-02-19T17:04:13.046Z,52.81
2023-02-19T17:06:40.895Z,52.61
2023-02-19T17:09:09.116Z,53.24
2023-02-19T17:11:38.524Z,53.02
2023-02-19T17:14:06.148Z,53.13
2023-02-19T17:16:34.415Z,53.03
2023-02-19T17:19:02.729Z,53.09
2023-02-19T17:21:32.891Z,52.94
2023-02-19T17:24:01.280Z,53.04
2023-02-19T17:26:30.578Z,53.38
2023-02-19T17:28:58.861Z,52.83
2023-02-19T17:31:26.170Z,52.44
2023-02-19T17:33:54.057Z,52.91
2023-02-19T17:36:24.664Z,52.84
2023-02-19T17:38:52.149Z,53.30
2023-02-19T17:41:19.607Z,52.81
2023-02-19T17:43:46.717Z,53.46
2023-02-19T17:46:19.114Z,53.16
2023-02-19T17:48:48.108Z,53.09
2023-02-19T17:51:15.528Z,53.22
2023-02-19T17:53:43.465Z,52.80
2023-02-19T17:56:17.238Z,53.15
2023-02-19T17:58:44.357Z,52.58
2023-02-19T18:01:12.318Z,52.57
2023-02-19T18:03:39.691Z,52.58
2023-02-19T18:06:08.414Z,52.83
2023-02-19T18:08:35.688Z,52.48
2023-02-19T18:11:02.509Z,51.89
2023-02-19T18:13:29.714Z,52.39
2023-02-19T18:15:56.690Z,52.24
2023-02-19T18:18:23.621Z,51.90
2023-02-19T18:20:50.798Z,51.88
2023-02-19T18:23:17.782Z,51.74
2023-02-19T18:25:44.681Z,52.71
2023-02-19T18:28:11.902Z,52.86
2023-02-19T18:30:44.524Z,53.48
2023-02-19T18:33:11.561Z,53.83
2023-02-19T18:35:38.713Z,54.07
2023-02-19T18:38:06.368Z,54.68
2023-02-19T18:40:33.240Z,54.82
2023-02-19T18:43:00.661Z,54.43
2023-02-19T18:45:28.675Z,54.29
2023-02-19T18:47:55.687Z,54.72
2023-02-19T18:50:23.630Z,54.30
2023-02-19T18:52:50.515Z,54.48
2023-02-19T18:55:17.757Z,54.39
2023-02-19T18:57:45.637Z,54.74
2023-02-19T19:00:18.916Z,55.27
2023-02-19T19:02:49.738Z,56.03
2023-02-19T19:05:19.741Z,56.98
2023-02-19T19:07:47.356Z,57.26
2023-02-19T19:10:14.294Z,57.44
2023-02-19T19:12:41.431Z,58.57
2023-02-19T19:15:09.109Z,59.04
2023-02-19T19:17:36.460Z,59.35
2023-02-19T19:20:04.019Z,59.34
2023-02-19T19:22:32.124Z,58.72
2023-02-19T19:25:01.288Z,58.28
2023-02-19T19:27:28.247Z,58.26
2023-02-19T19:29:56.195Z,58.21
2023-02-19T19:32:23.522Z,57.94
2023-02-19T19:34:50.513Z,58.41
2023-02-19T19:37:18.727Z,59.48
2023-02-19T19:39:45.749Z,59.67
2023-02-19T19:42:12.782Z,59.67
2023-02-19T19:44:40.363Z,60.47
2023-02-19T19:47:07.204Z,59.71
2023-02-19T19:49:34.722Z,59.17
2023-02-19T19:52:01.886Z,59.48
2023-02-19T19:54:29.152Z,59.63
2023-02-19T19:56:56.156Z,59.44
2023-02-19T19:59:23.226Z,59.36
2023-02-19T20:01:52.054Z,59.34
2023-02-19T20:04:22.353Z,59.32
2023-02-19T20:06:50.612Z,59.65
2023-02-19T20:09:19.024Z,60.06
2023-02-19T20:11:53.246Z,59.47
2023-02-19T20:14:22.126Z,59.64
2023-02-19T20:16:49.831Z,59.57
2023-02-19T20:19:19.520Z,60.43
2023-02-19T20:21:47.991Z,60.08
2023-02-19T20:24:26.682Z,59.89
2023-02-19T20:26:55.058Z,60.14
2023-02-19T20:29:22.112Z,60.34
2023-02-19T20:31:53.313Z,60.26
2023-02-19T20:34:20.849Z,60.12
2023-02-19T20:36:49.651Z,60.49
2023-02-19T20:39:19.139Z,59.60
2023-02-19T20:41:48.189Z,59.90
2023-02-19T20:44:16.481Z,59.86
2023-02-19T20:46:45.624Z,59.38
2023-02-19T20:49:13.876Z,59.83
2023-02-19T20:51:54.965Z,60.48
2023-02-19T20:54:24.794Z,60.98
2023-02-19T20:56:54.143Z,60.36
2023-02-19T20:59:25.617Z,59.63
2023-02-19T21:01:52.597Z,59.99
2023-02-19T21:04:20.188Z,60.80
2023-02-19T21:06:47.120Z,61.13
2023-02-19T21:09:14.006Z,61.74
2023-02-19T21:11:40.957Z,61.69
2023-02-19T21:14:08.027Z,61.53
2023-02-19T21:16:35.143Z,62.26
2023-02-19T21:19:02.509Z,61.89
2023-02-19T21:21:29.556Z,61.42
2023-02-19T21:23:58.637Z,60.17
2023-02-19T21:26:32.804Z,59.66
2023-02-19T21:28:59.750Z,60.44
2023-02-19T21:31:39.664Z,60.04
2023-02-19T21:34:08.430Z,59.54
2023-02-19T21:36:35.530Z,61.40
2023-02-19T21:39:03.908Z,61.82
2023-02-19T21:41:30.918Z,62.73
2023-02-19T21:43:58.182Z,63.23
2023-02-19T21:46:26.297Z,63.90
2023-02-19T21:48:55.164Z,64.64
2023-02-19T21:51:31.901Z,64.85
2023-02-19T21:53:59.259Z,65.43
2023-02-19T21:56:28.837Z,64.81
2023-02-19T21:58:56.346Z,64.72
2023-02-19T22:01:25.678Z,65.18
2023-02-19T22:03:52.974Z,65.35
2023-02-19T22:06:22.934Z,65.33
2023-02-19T22:08:49.899Z,65.49
2023-02-19T22:11:16.747Z,66.13
2023-02-19T22:13:43.751Z,67.01
2023-02-19T22:16:11.124Z,67.42
2023-02-19T22:18:38.270Z,66.57
2023-02-19T22:21:05.800Z,66.92
2023-02-19T22:23:32.618Z,66.07
2023-02-19T22:25:59.451Z,65.21
2023-02-19T22:28:26.527Z,65.71
2023-02-19T22:30:53.403Z,65.12
2023-02-19T22:33:20.170Z,63.79
2023-02-19T22:35:47.001Z,62.95
2023-02-19T22:38:14.197Z,63.95
2023-02-19T22:40:41.215Z,63.15
2023-02-19T22:43:08.111Z,62.89
2023-02-19T22:45:34.936Z,62.56
2023-02-19T22:48:01.832Z,63.17
2023-02-19T22:50:28.731Z,63.45
2023-02-19T22:52:55.734Z,64.14
2023-02-19T22:55:22.661Z,63.93
2023-02-19T22:57:49.514Z,63.73
2023-02-19T23:00:18.891Z,63.52
2023-02-19T23:02:45.793Z,62.62
2023-02-19T23:05:13.479Z,63.10
2023-02-19T23:07:45.754Z,63.22
2023-02-19T23:10:14.205Z,62.60
2023-02-19T23:12:41.801Z,62.09
2023-02-19T23:15:10.108Z,61.83
2023-02-19T23:17:37.546Z,61.94
2023-02-19T23:20:04.576Z,61.98
2023-02-19T23:22:31.427Z,62.82
2023-02-19T23:24:58.703Z,62.37
2023-02-19T23:27:25.522Z,61.19
2023-02-19T23:29:52.466Z,61.19
2023-02-19T23:32:19.450Z,61.65
2023-02-19T23:34:46.551Z,61.88
2023-02-19T23:37:13.400Z,62.29
2023-02-19T23:39:40.369Z,61.65
2023-02-19T23:42:07.140Z,61.35
2023-02-19T23:44:34.139Z,62.33
2023-02-19T23:47:01.027Z,61.79
2023-02-19T23:49:27.870Z,63.12
2023-02-19T23:51:54.676Z,62.80
2023-02-19T23:54:21.547Z,62.32
2023-02-19T23:56:48.392Z,62.52
2023-02-19T23:59:15.280Z,62.78
